Crabtree, Oregon
Current Conditions -  °F | °C
As of 9:56 AM on Monday 22 Dec 2014 (Local Time) from KSLE Reporting Station
Overcast Overcast  
Wind Chill: 52°   Ceiling: 600
Heat Index: 52°   Visibility: 10mi
Dew Point: 49°   Wind: 5mph
Humidity: 89%   Direction: 160°SSE
Pressure: 30.38"   Gusts: NA
Location:  44.63°N, 122.9°W
Report Text: KSLE 221756Z 16004KT 10SM BKN006 OVC013 11/09 A3038 RMK AO2 SLP287 T01110094 10111 20089 51024
Loading
Personal Weather Stations






























Interactive Weather Map New forecast layout! Learn more

10-Day Weather Forecast

Advertisements
Track Severe Weather on mobile